createdAt,value
2019-03-06T00:00:46.154Z,4.40
2019-03-06T00:03:15.503Z,4.40
2019-03-06T00:05:44.879Z,4.40
2019-03-06T00:08:13.931Z,4.40
2019-03-06T00:10:43.010Z,4.30
2019-03-06T00:13:11.973Z,4.30
2019-03-06T00:15:41.419Z,4.30
2019-03-06T00:18:10.380Z,4.30
2019-03-06T00:20:39.345Z,4.30
2019-03-06T00:23:08.230Z,4.30
2019-03-06T00:25:37.042Z,4.30
2019-03-06T00:28:06.067Z,4.30
2019-03-06T00:30:34.978Z,4.30
2019-03-06T00:33:04.373Z,4.30
2019-03-06T00:35:36.574Z,4.20
2019-03-06T00:38:05.814Z,4.10
2019-03-06T00:41:06.168Z,4.10
2019-03-06T00:43:35.222Z,4.10
2019-03-06T00:46:04.896Z,4.00
2019-03-06T00:48:34.231Z,4.00
2019-03-06T00:51:03.223Z,3.90
2019-03-06T00:53:32.251Z,3.90
2019-03-06T00:56:01.111Z,3.80
2019-03-06T00:58:30.099Z,3.70
2019-03-06T01:00:59.092Z,3.50
2019-03-06T01:03:27.969Z,3.30
2019-03-06T01:05:56.820Z,3.40
2019-03-06T01:08:25.812Z,3.60
2019-03-06T01:10:54.789Z,3.60
2019-03-06T01:13:23.690Z,3.50
2019-03-06T01:15:52.503Z,3.30
2019-03-06T01:18:21.320Z,3.30
2019-03-06T01:20:50.307Z,3.20
2019-03-06T01:23:19.211Z,3.20
2019-03-06T01:25:48.106Z,3.10
2019-03-06T01:28:17.368Z,3.00
2019-03-06T01:30:46.263Z,3.20
2019-03-06T01:33:26.520Z,3.20
2019-03-06T01:36:13.662Z,3.20
2019-03-06T01:39:02.253Z,3.20
2019-03-06T01:41:37.184Z,3.20
2019-03-06T01:44:10.883Z,3.40
2019-03-06T01:46:39.956Z,3.50
2019-03-06T01:49:09.364Z,3.50
2019-03-06T01:51:38.442Z,3.50
2019-03-06T01:54:07.409Z,3.50
2019-03-06T01:56:36.519Z,3.50
2019-03-06T01:59:05.858Z,3.40
2019-03-06T02:01:35.095Z,3.30
2019-03-06T02:04:04.522Z,3.20
2019-03-06T02:06:34.932Z,3.20
2019-03-06T02:09:05.656Z,3.20
2019-03-06T02:11:34.478Z,3.30
2019-03-06T02:14:03.728Z,3.10
2019-03-06T02:16:32.566Z,3.10
2019-03-06T02:19:02.509Z,3.10
2019-03-06T02:21:31.475Z,3.20
2019-03-06T02:24:01.012Z,3.30
2019-03-06T02:26:29.963Z,3.30
2019-03-06T02:28:58.907Z,3.20
2019-03-06T02:31:27.674Z,3.30
2019-03-06T02:33:56.610Z,3.20
2019-03-06T02:36:25.744Z,3.00
2019-03-06T02:38:54.731Z,2.90
2019-03-06T02:41:23.993Z,2.80
2019-03-06T02:43:53.393Z,2.80
2019-03-06T02:46:22.219Z,2.80
2019-03-06T02:48:51.379Z,2.80
2019-03-06T02:51:20.227Z,2.80
2019-03-06T02:53:49.439Z,2.80
2019-03-06T02:56:18.472Z,3.00
2019-03-06T02:59:01.389Z,3.00
2019-03-06T03:02:01.700Z,3.10
2019-03-06T03:04:55.679Z,3.10
2019-03-06T03:07:25.285Z,3.20
2019-03-06T03:09:54.125Z,3.20
2019-03-06T03:12:22.923Z,3.00
2019-03-06T03:14:51.777Z,3.10
2019-03-06T03:17:20.527Z,3.10
2019-03-06T03:19:49.750Z,3.00
2019-03-06T03:22:18.660Z,3.20
2019-03-06T03:24:47.559Z,3.10
2019-03-06T03:27:16.853Z,3.00
2019-03-06T03:29:45.759Z,2.90
2019-03-06T03:32:15.080Z,2.80
2019-03-06T03:34:44.049Z,2.80
2019-03-06T03:37:13.139Z,2.80
2019-03-06T03:39:41.991Z,2.60
2019-03-06T03:42:10.967Z,2.60
2019-03-06T03:44:39.984Z,2.50
2019-03-06T03:47:08.759Z,2.60
2019-03-06T03:49:37.659Z,2.60
2019-03-06T03:52:06.773Z,2.60
2019-03-06T03:54:35.906Z,2.70
2019-03-06T03:57:05.988Z,2.90
2019-03-06T03:59:35.127Z,3.00
2019-03-06T04:02:04.214Z,3.00
2019-03-06T04:04:33.058Z,3.10
2019-03-06T04:07:02.031Z,3.20
2019-03-06T04:09:31.275Z,3.00
2019-03-06T04:12:00.554Z,3.00
2019-03-06T04:14:29.533Z,2.80
2019-03-06T04:16:58.522Z,2.60
2019-03-06T04:19:27.885Z,2.40
2019-03-06T04:21:56.799Z,2.30
2019-03-06T04:24:26.070Z,2.20
2019-03-06T04:26:55.332Z,2.10
2019-03-06T04:29:24.091Z,2.00
2019-03-06T04:31:52.906Z,1.80
2019-03-06T04:34:21.878Z,1.80
2019-03-06T04:36:51.055Z,1.60
2019-03-06T04:39:20.000Z,1.60
2019-03-06T04:41:49.240Z,1.50
2019-03-06T04:44:18.089Z,1.40
2019-03-06T04:46:47.111Z,1.40
2019-03-06T04:49:16.019Z,1.30
2019-03-06T04:51:44.983Z,1.30
2019-03-06T04:54:13.814Z,1.30
2019-03-06T04:56:43.220Z,1.30
2019-03-06T04:59:12.071Z,1.20
2019-03-06T05:01:40.963Z,1.20
2019-03-06T05:04:09.997Z,1.20
2019-03-06T05:06:38.975Z,1.20
2019-03-06T05:09:08.337Z,1.20
2019-03-06T05:11:37.197Z,1.10
2019-03-06T05:14:06.031Z,1.10
2019-03-06T05:17:09.371Z,1.00
2019-03-06T05:19:39.182Z,1.00
2019-03-06T05:22:08.308Z,1.00
2019-03-06T05:24:37.214Z,1.10
2019-03-06T05:27:06.244Z,1.10
2019-03-06T05:29:35.142Z,1.10
2019-03-06T05:32:27.528Z,1.10
2019-03-06T05:34:56.972Z,1.00
2019-03-06T05:37:59.401Z,1.10
2019-03-06T05:40:29.230Z,1.10
2019-03-06T05:42:58.059Z,1.00
2019-03-06T05:45:26.917Z,1.00
2019-03-06T05:47:55.810Z,1.00
2019-03-06T05:50:24.575Z,1.00
2019-03-06T05:52:53.463Z,1.00
2019-03-06T05:55:22.482Z,1.00
2019-03-06T05:57:51.703Z,0.90
2019-03-06T06:00:22.036Z,0.90
2019-03-06T06:02:50.850Z,0.90
2019-03-06T06:05:19.784Z,1.00
2019-03-06T06:07:48.555Z,0.90
2019-03-06T06:10:17.566Z,0.90
2019-03-06T06:12:46.421Z,1.00
2019-03-06T06:15:15.403Z,0.90
2019-03-06T06:17:44.475Z,1.00
2019-03-06T06:20:13.674Z,1.00
2019-03-06T06:22:57.774Z,1.00
2019-03-06T06:25:27.553Z,1.00
2019-03-06T06:27:56.440Z,1.00
2019-03-06T06:30:25.291Z,1.10
2019-03-06T06:32:54.547Z,1.20
2019-03-06T06:35:23.700Z,1.30
2019-03-06T06:37:52.549Z,1.30
2019-03-06T06:40:21.701Z,1.40
2019-03-06T06:42:50.663Z,1.50
2019-03-06T06:45:19.534Z,1.50
2019-03-06T06:48:20.088Z,1.50
2019-03-06T06:51:19.318Z,1.60
2019-03-06T06:53:58.722Z,1.70
2019-03-06T06:57:09.204Z,1.70
2019-03-06T06:59:45.936Z,1.80
2019-03-06T07:03:16.303Z,1.90
2019-03-06T07:05:56.862Z,2.00
2019-03-06T07:08:57.483Z,2.10
2019-03-06T07:11:49.274Z,2.20
2019-03-06T07:14:24.503Z,2.40
2019-03-06T07:17:16.194Z,2.40
2019-03-06T07:19:56.403Z,2.50
2019-03-06T07:22:45.035Z,2.50
2019-03-06T07:25:27.566Z,2.60
2019-03-06T07:28:12.417Z,2.70
2019-03-06T07:31:06.457Z,2.90
2019-03-06T07:34:00.528Z,3.00
2019-03-06T07:37:04.285Z,3.10
2019-03-06T07:39:56.292Z,3.30
2019-03-06T07:42:59.587Z,3.40
2019-03-06T07:46:01.715Z,3.50
2019-03-06T07:48:44.533Z,3.70
2019-03-06T07:51:32.025Z,3.70
2019-03-06T07:54:32.472Z,3.80
2019-03-06T07:57:23.681Z,3.90
2019-03-06T07:59:52.530Z,3.90
2019-03-06T08:02:25.377Z,4.10
2019-03-06T08:04:54.624Z,4.10
2019-03-06T08:07:23.622Z,4.30
2019-03-06T08:09:52.652Z,4.30
2019-03-06T08:12:49.804Z,4.40
2019-03-06T08:15:36.500Z,4.60
2019-03-06T08:18:23.469Z,4.60
2019-03-06T08:21:01.029Z,4.90
2019-03-06T08:24:01.343Z,5.10
2019-03-06T08:26:30.444Z,5.40
2019-03-06T08:28:59.731Z,5.50
2019-03-06T08:31:37.624Z,5.60
2019-03-06T08:34:06.610Z,5.80
2019-03-06T08:36:35.417Z,6.00
2019-03-06T08:39:13.914Z,6.20
2019-03-06T08:41:43.100Z,6.30
2019-03-06T08:44:12.400Z,6.60
2019-03-06T08:46:48.912Z,7.10
2019-03-06T08:49:40.130Z,7.30
2019-03-06T08:52:34.438Z,8.30
2019-03-06T08:55:11.208Z,8.90
2019-03-06T08:57:48.430Z,9.60
2019-03-06T09:00:30.736Z,9.60
2019-03-06T09:03:14.096Z,9.90
2019-03-06T09:05:51.315Z,10.00
2019-03-06T09:08:37.241Z,10.40
2019-03-06T09:11:40.729Z,10.60
2019-03-06T09:14:20.308Z,10.50
2019-03-06T09:17:06.924Z,10.70
2019-03-06T09:20:13.432Z,11.50
2019-03-06T09:22:53.880Z,12.10
2019-03-06T09:25:32.374Z,12.60
2019-03-06T09:28:20.651Z,12.50
2019-03-06T09:30:59.388Z,13.20
2019-03-06T09:33:41.579Z,12.50
2019-03-06T09:36:32.881Z,13.20
2019-03-06T09:39:19.873Z,14.00
2019-03-06T09:42:18.548Z,13.70
2019-03-06T09:44:53.228Z,14.20
2019-03-06T09:47:31.685Z,13.90
2019-03-06T09:50:12.898Z,14.10
2019-03-06T09:52:53.677Z,14.20
2019-03-06T09:55:40.997Z,14.30
2019-03-06T09:58:17.426Z,14.70
2019-03-06T10:01:05.984Z,14.80
2019-03-06T10:04:09.638Z,15.00
2019-03-06T10:07:13.655Z,14.90
2019-03-06T10:10:03.233Z,15.70
2019-03-06T10:12:47.702Z,15.40
2019-03-06T10:15:37.174Z,14.50
2019-03-06T10:18:17.900Z,14.30
2019-03-06T10:20:48.638Z,14.50
2019-03-06T10:23:17.665Z,15.10
2019-03-06T10:25:46.874Z,15.50
2019-03-06T10:28:15.732Z,15.40
2019-03-06T10:30:44.968Z,15.10
2019-03-06T10:33:14.095Z,15.80
2019-03-06T10:35:43.101Z,15.30
2019-03-06T10:38:16.611Z,14.60
2019-03-06T10:40:42.765Z,14.90
2019-03-06T10:43:11.918Z,15.00
2019-03-06T10:48:11.817Z,15.10
2019-03-06T10:50:41.013Z,15.70
2019-03-06T10:53:09.911Z,15.20
2019-03-06T10:55:39.368Z,14.90
2019-03-06T10:58:08.583Z,14.40
2019-03-06T11:00:43.415Z,14.40
2019-03-06T11:03:12.399Z,14.40
2019-03-06T11:05:41.774Z,14.80
2019-03-06T11:08:10.622Z,14.80
2019-03-06T11:10:39.751Z,14.70
2019-03-06T11:13:11.174Z,14.20
2019-03-06T11:15:40.734Z,14.30
2019-03-06T11:18:09.922Z,14.20
2019-03-06T11:20:40.785Z,14.80
2019-03-06T11:23:10.072Z,15.50
2019-03-06T11:25:40.463Z,15.70
2019-03-06T11:28:11.133Z,16.00
2019-03-06T11:30:51.942Z,15.20
2019-03-06T11:33:22.375Z,15.10
2019-03-06T11:35:52.626Z,15.30
2019-03-06T11:38:21.890Z,15.00
2019-03-06T11:40:51.212Z,14.30
2019-03-06T11:43:20.371Z,13.80
2019-03-06T11:45:49.365Z,14.20
2019-03-06T11:48:18.518Z,13.50
2019-03-06T11:50:47.868Z,13.60
2019-03-06T11:53:16.839Z,13.10
2019-03-06T11:55:45.910Z,13.20
2019-03-06T11:58:17.234Z,13.00
2019-03-06T12:00:46.871Z,13.10
2019-03-06T12:03:17.849Z,13.20
2019-03-06T12:05:47.415Z,13.80
2019-03-06T12:08:16.928Z,14.20
2019-03-06T12:10:46.272Z,14.20
2019-03-06T12:13:16.281Z,13.50
2019-03-06T12:15:47.807Z,13.40
2019-03-06T12:18:16.858Z,13.30
2019-03-06T12:20:46.024Z,13.30
2019-03-06T12:23:14.851Z,13.30
2019-03-06T12:25:43.867Z,13.60
2019-03-06T12:28:14.758Z,13.70
2019-03-06T12:30:43.847Z,13.70
2019-03-06T12:33:20.743Z,13.10
2019-03-06T12:35:50.323Z,13.00
2019-03-06T12:38:19.380Z,13.00
2019-03-06T12:40:48.554Z,13.00
2019-03-06T12:43:17.433Z,13.20
2019-03-06T12:46:28.064Z,13.30
2019-03-06T12:49:11.233Z,12.70
2019-03-06T12:51:40.492Z,13.10
2019-03-06T12:54:09.787Z,12.80
2019-03-06T12:56:38.718Z,12.90
2019-03-06T12:59:08.126Z,13.00
2019-03-06T13:01:39.052Z,13.10
2019-03-06T13:04:07.641Z,13.90
2019-03-06T13:06:36.612Z,14.80
2019-03-06T13:09:13.808Z,14.70
2019-03-06T13:11:43.432Z,15.60
2019-03-06T13:14:12.302Z,16.40
2019-03-06T13:16:41.443Z,16.30
2019-03-06T13:19:10.349Z,15.80
2019-03-06T13:21:39.168Z,15.80
2019-03-06T13:24:08.182Z,16.50
2019-03-06T13:26:37.311Z,16.50
2019-03-06T13:29:06.366Z,16.30
2019-03-06T13:31:35.249Z,16.30
2019-03-06T13:34:26.685Z,16.30
2019-03-06T13:36:55.548Z,16.90
2019-03-06T13:39:24.463Z,17.10
2019-03-06T13:41:53.740Z,16.40
2019-03-06T13:44:22.606Z,16.30
2019-03-06T13:46:51.485Z,15.40
2019-03-06T13:49:20.490Z,15.00
2019-03-06T13:51:49.524Z,14.70
2019-03-06T13:54:18.411Z,15.00
2019-03-06T13:56:47.487Z,15.70
2019-03-06T13:59:16.341Z,15.60
2019-03-06T14:01:45.465Z,15.10
2019-03-06T14:04:15.120Z,15.30
2019-03-06T14:06:43.946Z,15.80
2019-03-06T14:09:14.002Z,15.60
2019-03-06T14:11:43.419Z,15.40
2019-03-06T14:14:12.202Z,15.20
2019-03-06T14:16:41.234Z,14.90
2019-03-06T14:19:10.129Z,14.60
2019-03-06T14:21:39.254Z,14.50
2019-03-06T14:24:08.140Z,14.50
2019-03-06T14:26:37.284Z,14.60
2019-03-06T14:29:06.537Z,14.50
2019-03-06T14:31:35.532Z,14.70
2019-03-06T14:34:04.443Z,14.70
2019-03-06T14:36:33.359Z,14.80
2019-03-06T14:39:02.680Z,14.80
2019-03-06T14:41:31.813Z,14.70
2019-03-06T14:44:00.792Z,14.10
2019-03-06T14:46:29.722Z,13.90
2019-03-06T14:48:58.845Z,13.80
2019-03-06T14:51:27.878Z,13.70
2019-03-06T14:53:56.864Z,13.80
2019-03-06T14:56:30.862Z,13.80
2019-03-06T14:58:59.707Z,13.80
2019-03-06T15:01:28.586Z,13.90
2019-03-06T15:03:58.032Z,13.50
2019-03-06T15:06:30.745Z,13.40
2019-03-06T15:08:59.657Z,13.30
2019-03-06T15:11:33.118Z,13.10
2019-03-06T15:14:03.499Z,13.00
2019-03-06T15:16:32.395Z,12.90
2019-03-06T15:19:01.324Z,12.80
2019-03-06T15:21:30.150Z,12.80
2019-03-06T15:23:59.144Z,12.60
2019-03-06T15:26:28.050Z,12.60
2019-03-06T15:28:56.951Z,12.60
2019-03-06T15:31:25.940Z,12.70
2019-03-06T15:33:54.811Z,12.60
2019-03-06T15:36:24.852Z,12.50
2019-03-06T15:38:53.873Z,12.30
2019-03-06T15:41:22.704Z,12.30
2019-03-06T15:43:51.657Z,12.30
2019-03-06T15:46:20.693Z,12.20
2019-03-06T15:48:49.667Z,12.20
2019-03-06T15:51:18.731Z,12.10
2019-03-06T15:53:47.586Z,12.00
2019-03-06T15:56:16.488Z,12.00
2019-03-06T15:58:45.388Z,11.90
2019-03-06T16:01:14.527Z,11.90
2019-03-06T16:03:43.503Z,12.00
2019-03-06T16:06:20.129Z,12.00
2019-03-06T16:08:43.368Z,11.90
2019-03-06T16:11:13.027Z,11.90
2019-03-06T16:13:41.998Z,11.80
2019-03-06T16:16:10.984Z,11.80
2019-03-06T16:18:40.237Z,11.80
2019-03-06T16:21:10.234Z,11.80
2019-03-06T16:23:39.170Z,11.70
2019-03-06T16:26:08.096Z,11.60
2019-03-06T16:28:37.046Z,11.60
2019-03-06T16:31:09.283Z,11.50
2019-03-06T16:33:40.206Z,11.50
2019-03-06T16:36:09.979Z,11.40
2019-03-06T16:38:38.891Z,11.40
2019-03-06T16:41:07.930Z,11.40
2019-03-06T16:43:37.616Z,11.30
2019-03-06T16:46:07.883Z,11.30
2019-03-06T16:48:37.763Z,11.30
2019-03-06T16:51:09.142Z,11.20
2019-03-06T16:53:38.095Z,11.20
2019-03-06T16:56:07.082Z,11.20
2019-03-06T16:58:36.151Z,11.20
2019-03-06T17:01:05.675Z,11.10
2019-03-06T17:03:34.638Z,11.10
2019-03-06T17:06:03.716Z,11.00
2019-03-06T17:08:32.631Z,11.00
2019-03-06T17:11:01.568Z,10.90
2019-03-06T17:13:30.474Z,10.90
2019-03-06T17:15:59.720Z,10.80
2019-03-06T17:18:29.081Z,10.80
2019-03-06T17:20:58.299Z,10.80
2019-03-06T17:23:27.244Z,10.90
2019-03-06T17:25:57.007Z,10.80
2019-03-06T17:28:45.617Z,10.70
2019-03-06T17:31:18.866Z,10.70
2019-03-06T17:33:47.863Z,10.70
2019-03-06T17:36:17.472Z,10.60
2019-03-06T17:38:46.768Z,10.70
2019-03-06T17:41:15.652Z,10.60
2019-03-06T17:43:44.670Z,10.50
2019-03-06T17:46:13.625Z,10.50
2019-03-06T17:48:43.089Z,10.50
2019-03-06T17:51:12.000Z,10.50
2019-03-06T17:53:41.311Z,10.40
2019-03-06T17:56:10.278Z,10.40
2019-03-06T17:58:39.217Z,10.50
2019-03-06T18:01:12.004Z,10.50
2019-03-06T18:03:45.051Z,10.70
2019-03-06T18:06:14.302Z,10.70
2019-03-06T18:08:43.379Z,10.70
2019-03-06T18:11:13.397Z,10.70
2019-03-06T18:13:43.511Z,10.70
2019-03-06T18:16:12.423Z,10.70
2019-03-06T18:18:41.529Z,10.80
2019-03-06T18:21:11.087Z,10.90
2019-03-06T18:23:39.980Z,11.00
2019-03-06T18:26:09.028Z,11.00
2019-03-06T18:28:38.048Z,11.00
2019-03-06T18:31:07.453Z,11.00
2019-03-06T18:33:36.614Z,11.00
2019-03-06T18:36:05.773Z,11.00
2019-03-06T18:38:35.226Z,11.00
2019-03-06T18:41:04.840Z,11.10
2019-03-06T18:43:33.772Z,11.00
2019-03-06T18:46:02.945Z,11.10
2019-03-06T18:48:32.106Z,11.00
2019-03-06T18:51:01.094Z,11.00
2019-03-06T18:53:29.915Z,11.00
2019-03-06T18:55:59.623Z,11.00
2019-03-06T18:58:28.644Z,11.00
2019-03-06T19:00:57.882Z,11.00
2019-03-06T19:03:26.759Z,11.00
2019-03-06T19:05:55.675Z,11.00
2019-03-06T19:08:31.133Z,10.90
2019-03-06T19:10:55.275Z,10.90
2019-03-06T19:13:24.215Z,10.80
2019-03-06T19:15:53.847Z,10.80
2019-03-06T19:18:22.835Z,10.80
2019-03-06T19:20:52.099Z,10.70
2019-03-06T19:23:20.932Z,10.80
2019-03-06T19:25:49.928Z,10.80
2019-03-06T19:28:18.842Z,10.80
2019-03-06T19:30:47.896Z,10.70
2019-03-06T19:33:16.880Z,10.70
2019-03-06T19:35:45.767Z,10.70
2019-03-06T19:38:14.568Z,10.80
2019-03-06T19:40:43.505Z,10.60
2019-03-06T19:43:12.380Z,10.70
2019-03-06T19:45:42.583Z,10.70
2019-03-06T19:48:11.894Z,10.70
2019-03-06T19:50:41.168Z,10.70
2019-03-06T19:53:10.091Z,10.70
2019-03-06T19:55:39.022Z,10.70
2019-03-06T19:58:08.098Z,10.60
2019-03-06T20:00:37.054Z,10.60
2019-03-06T20:03:07.750Z,10.70
2019-03-06T20:05:37.690Z,10.60
2019-03-06T20:08:11.546Z,10.70
2019-03-06T20:10:40.868Z,10.70
2019-03-06T20:13:10.269Z,10.70
2019-03-06T20:15:43.995Z,10.70
2019-03-06T20:18:14.501Z,10.70
2019-03-06T20:20:43.560Z,10.70
2019-03-06T20:23:12.470Z,10.70
2019-03-06T20:25:41.895Z,10.70
2019-03-06T20:28:10.946Z,10.70
2019-03-06T20:30:39.960Z,10.70
2019-03-06T20:33:09.543Z,10.80
2019-03-06T20:35:38.671Z,10.80
2019-03-06T20:38:07.574Z,10.80
2019-03-06T20:40:36.441Z,10.80
2019-03-06T20:43:05.479Z,10.80
2019-03-06T20:45:34.477Z,10.70
2019-03-06T20:48:04.079Z,10.80
2019-03-06T20:50:34.706Z,10.80
2019-03-06T20:53:04.744Z,10.70
2019-03-06T20:55:33.897Z,10.80
2019-03-06T20:58:03.356Z,10.70
2019-03-06T21:00:32.250Z,10.70
2019-03-06T21:03:01.101Z,10.70
2019-03-06T21:05:30.507Z,10.60
2019-03-06T21:07:59.609Z,10.60
2019-03-06T21:10:28.467Z,10.60
2019-03-06T21:12:57.509Z,10.60
2019-03-06T21:15:26.432Z,10.60
2019-03-06T21:17:55.268Z,10.70
2019-03-06T21:20:24.184Z,10.60
2019-03-06T21:22:53.161Z,10.70
2019-03-06T21:25:23.099Z,10.60
2019-03-06T21:27:52.435Z,10.60
2019-03-06T21:30:27.782Z,10.60
2019-03-06T21:32:56.618Z,10.60
2019-03-06T21:35:25.470Z,10.60
2019-03-06T21:37:54.394Z,10.60
2019-03-06T21:40:23.611Z,10.60
2019-03-06T21:42:52.807Z,10.60
2019-03-06T21:45:22.059Z,10.60
2019-03-06T21:47:51.017Z,10.60
2019-03-06T21:50:19.967Z,10.60
2019-03-06T21:52:48.757Z,10.60
2019-03-06T21:55:17.663Z,10.60
2019-03-06T21:57:47.092Z,10.50
2019-03-06T22:00:18.801Z,10.50
2019-03-06T22:02:47.799Z,10.50
2019-03-06T22:05:16.617Z,10.40
2019-03-06T22:07:45.620Z,10.40
2019-03-06T22:10:16.279Z,10.40
2019-03-06T22:12:45.222Z,10.40
2019-03-06T22:15:14.896Z,10.30
2019-03-06T22:17:43.791Z,10.30
2019-03-06T22:20:13.433Z,10.20
2019-03-06T22:22:42.631Z,10.30
2019-03-06T22:25:12.448Z,10.20
2019-03-06T22:27:41.256Z,10.20
2019-03-06T22:30:13.421Z,10.20
2019-03-06T22:32:42.249Z,10.10
2019-03-06T22:35:11.361Z,10.10
2019-03-06T22:37:40.267Z,10.10
2019-03-06T22:40:11.092Z,10.00
2019-03-06T22:42:39.989Z,10.00
2019-03-06T22:45:09.625Z,10.00
2019-03-06T22:47:39.577Z,10.00
2019-03-06T22:50:10.126Z,9.90
2019-03-06T22:52:38.950Z,9.90
2019-03-06T22:55:09.584Z,10.00
2019-03-06T22:57:38.395Z,9.90
2019-03-06T23:00:15.839Z,9.90
2019-03-06T23:02:45.273Z,9.90
2019-03-06T23:05:14.139Z,9.90
2019-03-06T23:07:43.360Z,9.80
2019-03-06T23:10:12.207Z,9.80
2019-03-06T23:12:41.371Z,9.80
2019-03-06T23:15:10.276Z,9.80
2019-03-06T23:17:39.102Z,9.80
2019-03-06T23:20:08.074Z,9.80
2019-03-06T23:22:36.995Z,9.80
2019-03-06T23:25:05.987Z,9.70
2019-03-06T23:27:34.840Z,9.70
2019-03-06T23:30:04.697Z,9.70
2019-03-06T23:32:33.438Z,9.70
2019-03-06T23:35:02.460Z,9.60
2019-03-06T23:37:31.399Z,9.60
2019-03-06T23:40:00.273Z,9.60
2019-03-06T23:42:29.140Z,9.60
2019-03-06T23:44:58.032Z,9.50
2019-03-06T23:47:26.810Z,9.50
2019-03-06T23:49:56.145Z,9.50
2019-03-06T23:52:29.810Z,9.60
2019-03-06T23:54:58.948Z,9.60
2019-03-06T23:57:27.786Z,9.60
2019-03-06T23:59:56.494Z,9.60
